Liberta — V2CM3 — position and weather

sailwx.info

Track history (hours):
 
Tides and Currents Weather Stations Pressure Air Temp Water Temp Dewpoint Dewpoint Depression Visibility Wind Speed Wind Dir Waves Ship Positions

Liberta

Last reported at 2016-Sep-19 06:32 UTC. Time now 2016-Sep-25 14:04 UTC.
Position N 37°41' W 000°24'.

Length 138 m; draft 8.8 m.

Type: Cargo ship. MMSI: 305043000.

Date/timePositionNaut miles runAvg speedWind from/ knotsBaromVisibWave heightAir tempDewpointWater temp
2016-Sep-19 06:32N 37°41' W 000°24'34310.3
2016-Sep-17 21:22N 36°08' W 007°16'910.4
2016-Sep-17 20:33N 36°10' W 007°27'1310.4
2016-Sep-17 19:16N 36°13' W 007°43'6110.6
2016-Sep-17 13:32N 36°29' W 008°55'3010.2
2016-Sep-17 10:34N 36°44' W 009°28'1110.6
2016-Sep-17 09:33N 36°53' W 009°34'1111.0
2016-Sep-17 08:33N 37°04' W 009°38'1110.8
2016-Sep-17 07:34N 37°14' W 009°41'2110.6
2016-Sep-17 05:33N 37°35' W 009°48'1010.4
2016-Sep-17 04:33N 37°45' W 009°51'4210.6
2016-Sep-17 00:33N 38°26' W 010°03'  
2016-Sep-14 03:33N 49°05' W 005°22'7110.2
2016-Sep-13 20:34N 49°42' W 003°48'2210.8
2016-Sep-13 18:34N 49°52' W 003°19'10 9.7
2016-Sep-13 17:33N 49°57' W 003°06'9 9.3
2016-Sep-13 16:34N 50°02' W 002°53'8111.6
2016-Sep-13 09:34N 50°23' W 000°51'2311.3
2016-Sep-13 07:33N 50°29' W 000°17'1110.3
2016-Sep-13 06:30N 50°32' W 000°00'2010.1
2016-Sep-13 04:29N 50°38' E 000°30'2311.4
2016-Sep-13 02:26N 50°51' E 001°01'3311.5
2016-Sep-12 23:33N 51°12' E 001°41'19 9.7
2016-Sep-12 21:33N 51°28' E 001°59'2210.7
2016-Sep-12 19:30N 51°45' E 002°22'14210.9
2016-Sep-12 06:29N 53°39' E 004°41'3110.7
2016-Sep-12 03:33N 54°08' E 005°01'264 9.8
2016-Sep-11 00:33N 57°42' E 009°38'1110.2
2016-Sep-10 23:27N 57°47' E 009°57'910.3
2016-Sep-10 22:33N 57°47' E 010°14'1010.3
2016-Sep-10 21:33N 57°48' E 010°33'9 9.1
2016-Sep-10 20:33N 57°46' E 010°50'1010.2
2016-Sep-10 19:33N 57°39' E 011°05'1111.0
2016-Sep-10 18:34N 57°31' E 011°19'1110.9
2016-Sep-10 17:34N 57°22' E 011°30'1211.3
2016-Sep-10 16:30N 57°11' E 011°37'1111.0
2016-Sep-10 15:33N 57°01' E 011°44'1010.5
2016-Sep-10 14:33N 56°51' E 011°50'10 9.7
2016-Sep-10 13:33N 56°41' E 011°50'1110.9
2016-Sep-10 12:34N 56°32' E 011°40'1111.1
2016-Sep-10 11:34N 56°22' E 011°30'1111.2
2016-Sep-10 10:34N 56°13' E 011°20'1111.3
2016-Sep-10 09:34N 56°04' E 011°07'1211.9
2016-Sep-10 08:33N 55°54' E 010°55'1311.1
2016-Sep-10 07:25N 55°42' E 010°48'2010.9
2016-Sep-10 05:32N 55°23' E 011°02'1010.4
2016-Sep-10 04:34N 55°13' E 011°06'1110.6
2016-Sep-10 03:33N 55°03' E 011°02'1110.5
2016-Sep-10 02:34N 54°54' E 010°54'1111.0
2016-Sep-10 01:34N 54°43' E 010°54'1111.1
2016-Sep-10 00:33N 54°36' E 011°09'1110.6
2016-Sep-09 23:33N 54°32' E 011°26'1010.3
2016-Sep-09 22:33N 54°27' E 011°42'1010.2
2016-Sep-09 21:34N 54°26' E 011°59'9 8.9
2016-Sep-09 20:33N 54°31' E 012°12'10 9.8
2016-Sep-09 19:34N 54°39' E 012°21'2010.0
2016-Sep-09 17:31N 54°47' E 012°54'1010.1
2016-Sep-09 16:33N 54°47' E 013°11'13 9.6
2016-Sep-09 15:11N 54°46' E 013°33'6 9.5
2016-Sep-09 14:34N 54°45' E 013°43'11 9.5
2016-Sep-09 13:27N 54°42' E 014°01'19 9.6
2016-Sep-09 11:28N 54°40' E 014°34'1310.4
2016-Sep-09 10:12N 54°46' E 014°54'710.3
2016-Sep-09 09:33N 54°49' E 015°04'1010.3
2016-Sep-09 08:33N 54°53' E 015°21'1110.5
2016-Sep-09 07:31N 54°57' E 015°38'  
Track history (hours):
 
Tides and Currents Weather Stations Pressure Air Temp Water Temp Dewpoint Dewpoint Depression Visibility Wind Speed Wind Dir Waves Ship Positions

Liberta

Last reported at 2016-Sep-19 06:32 UTC. Time now 2016-Sep-25 14:04 UTC.
Position N 37°41' W 000°24'.

Length 138 m; draft 8.8 m.

Type: Cargo ship. MMSI: 305043000.

Date/timePositionNaut miles runAvg speedWind from/ knotsBaromVisibWave heightAir tempDewpointWater temp
2016-Sep-19 06:32N 37°41' W 000°24'34310.3
2016-Sep-17 21:22N 36°08' W 007°16'910.4
2016-Sep-17 20:33N 36°10' W 007°27'1310.4
2016-Sep-17 19:16N 36°13' W 007°43'6110.6
2016-Sep-17 13:32N 36°29' W 008°55'3010.2
2016-Sep-17 10:34N 36°44' W 009°28'1110.6
2016-Sep-17 09:33N 36°53' W 009°34'1111.0
2016-Sep-17 08:33N 37°04' W 009°38'1110.8
2016-Sep-17 07:34N 37°14' W 009°41'2110.6
2016-Sep-17 05:33N 37°35' W 009°48'1010.4
2016-Sep-17 04:33N 37°45' W 009°51'4210.6
2016-Sep-17 00:33N 38°26' W 010°03'  
2016-Sep-14 03:33N 49°05' W 005°22'7110.2
2016-Sep-13 20:34N 49°42' W 003°48'2210.8
2016-Sep-13 18:34N 49°52' W 003°19'10 9.7
2016-Sep-13 17:33N 49°57' W 003°06'9 9.3
2016-Sep-13 16:34N 50°02' W 002°53'8111.6
2016-Sep-13 09:34N 50°23' W 000°51'2311.3
2016-Sep-13 07:33N 50°29' W 000°17'1110.3
2016-Sep-13 06:30N 50°32' W 000°00'2010.1
2016-Sep-13 04:29N 50°38' E 000°30'2311.4
2016-Sep-13 02:26N 50°51' E 001°01'3311.5
2016-Sep-12 23:33N 51°12' E 001°41'19 9.7
2016-Sep-12 21:33N 51°28' E 001°59'2210.7
2016-Sep-12 19:30N 51°45' E 002°22'14210.9
2016-Sep-12 06:29N 53°39' E 004°41'3110.7
2016-Sep-12 03:33N 54°08' E 005°01'264 9.8
2016-Sep-11 00:33N 57°42' E 009°38'1110.2
2016-Sep-10 23:27N 57°47' E 009°57'910.3
2016-Sep-10 22:33N 57°47' E 010°14'1010.3
2016-Sep-10 21:33N 57°48' E 010°33'9 9.1
2016-Sep-10 20:33N 57°46' E 010°50'1010.2
2016-Sep-10 19:33N 57°39' E 011°05'1111.0
2016-Sep-10 18:34N 57°31' E 011°19'1110.9
2016-Sep-10 17:34N 57°22' E 011°30'1211.3
2016-Sep-10 16:30N 57°11' E 011°37'1111.0
2016-Sep-10 15:33N 57°01' E 011°44'1010.5
2016-Sep-10 14:33N 56°51' E 011°50'10 9.7
2016-Sep-10 13:33N 56°41' E 011°50'1110.9
2016-Sep-10 12:34N 56°32' E 011°40'1111.1
2016-Sep-10 11:34N 56°22' E 011°30'1111.2
2016-Sep-10 10:34N 56°13' E 011°20'1111.3
2016-Sep-10 09:34N 56°04' E 011°07'1211.9
2016-Sep-10 08:33N 55°54' E 010°55'1311.1
2016-Sep-10 07:25N 55°42' E 010°48'2010.9
2016-Sep-10 05:32N 55°23' E 011°02'1010.4
2016-Sep-10 04:34N 55°13' E 011°06'1110.6
2016-Sep-10 03:33N 55°03' E 011°02'1110.5
2016-Sep-10 02:34N 54°54' E 010°54'1111.0
2016-Sep-10 01:34N 54°43' E 010°54'1111.1
2016-Sep-10 00:33N 54°36' E 011°09'1110.6
2016-Sep-09 23:33N 54°32' E 011°26'1010.3
2016-Sep-09 22:33N 54°27' E 011°42'1010.2
2016-Sep-09 21:34N 54°26' E 011°59'9 8.9
2016-Sep-09 20:33N 54°31' E 012°12'10 9.8
2016-Sep-09 19:34N 54°39' E 012°21'2010.0
2016-Sep-09 17:31N 54°47' E 012°54'1010.1
2016-Sep-09 16:33N 54°47' E 013°11'13 9.6
2016-Sep-09 15:11N 54°46' E 013°33'6 9.5
2016-Sep-09 14:34N 54°45' E 013°43'11 9.5
2016-Sep-09 13:27N 54°42' E 014°01'19 9.6
2016-Sep-09 11:28N 54°40' E 014°34'1310.4
2016-Sep-09 10:12N 54°46' E 014°54'710.3
2016-Sep-09 09:33N 54°49' E 015°04'1010.3
2016-Sep-09 08:33N 54°53' E 015°21'1110.5
2016-Sep-09 07:31N 54°57' E 015°38'  

Dump ship's entire track history